JBU240 MYNN-KMCO
Flight info
| Callsign | JBU240 |
|---|---|
| Flight time | 0h 56m |
| Altitude | 36000 |
| Route | PEACH DCT CCLUB RIDES2 |
| Aircraft | A320/M-SDE3FGHIRWY/LB1 |
Departure
| Time | 2026-04-24 08:02 |
|---|---|
| Airport | Lynden Pindling International Airport (MYNN) |
Arrival
| Time | 2026-04-24 08:58 |
|---|---|
| Airport | Orlando International Airport (KMCO) |
| Time | Latitude | Longitude | Altitude | Speed | Heading |
|---|---|---|---|---|---|
| 2026-04-24 07:43 | 25.04951 | -77.46691 | 17 ft | 0 kts | 109° |
| 2026-04-24 07:52 | 25.04956 | -77.46707 | 17 ft | 4 kts | 109° |
| 2026-04-24 07:52 | 25.04965 | -77.46735 | 19 ft | 4 kts | 109° |
| 2026-04-24 07:52 | 25.04974 | -77.46761 | 18 ft | 4 kts | 116° |
| 2026-04-24 07:52 | 25.04980 | -77.46782 | 17 ft | 4 kts | 77° |
| 2026-04-24 07:53 | 25.04968 | -77.46806 | 19 ft | 4 kts | 57° |
| 2026-04-24 07:53 | 25.04963 | -77.46816 | 18 ft | 0 kts | 68° |
| 2026-04-24 07:56 | 25.04973 | -77.46809 | 19 ft | 3 kts | 13° |
| 2026-04-24 07:56 | 25.04989 | -77.46843 | 17 ft | 6 kts | 268° |
| 2026-04-24 07:56 | 25.04973 | -77.46889 | 18 ft | 8 kts | 247° |
| 2026-04-24 07:57 | 25.04937 | -77.46928 | 17 ft | 8 kts | 196° |
| 2026-04-24 07:57 | 25.04894 | -77.46973 | 18 ft | 10 kts | 267° |
| 2026-04-24 07:57 | 25.04931 | -77.47032 | 18 ft | 10 kts | 314° |
| 2026-04-24 07:57 | 25.04989 | -77.47098 | 19 ft | 14 kts | 314° |
| 2026-04-24 07:58 | 25.05069 | -77.47188 | 18 ft | 19 kts | 314° |
| 2026-04-24 07:58 | 25.05161 | -77.47290 | 18 ft | 16 kts | 315° |
| 2026-04-24 07:58 | 25.05215 | -77.47361 | 19 ft | 11 kts | 299° |
| 2026-04-24 07:58 | 25.05218 | -77.47422 | 19 ft | 0 kts | 254° |
| 2026-04-24 07:59 | 25.05215 | -77.47434 | 19 ft | 3 kts | 254° |
| 2026-04-24 07:59 | 25.05206 | -77.47463 | 20 ft | 5 kts | 249° |
| 2026-04-24 07:59 | 25.05189 | -77.47505 | 21 ft | 7 kts | 242° |
| 2026-04-24 08:00 | 25.05143 | -77.47524 | 22 ft | 9 kts | 154° |
| 2026-04-24 08:00 | 25.05118 | -77.47498 | 20 ft | 0 kts | 135° |
| 2026-04-24 08:01 | 25.05115 | -77.47495 | 20 ft | 3 kts | 135° |
| 2026-04-24 08:01 | 25.05021 | -77.47393 | 21 ft | 54 kts | 135° |
| 2026-04-24 08:01 | 25.04565 | -77.46885 | 21 ft | 130 kts | 135° |
| 2026-04-24 08:02 | 25.03789 | -77.46026 | 166 ft | 175 kts | 135° |
| 2026-04-24 08:02 | 25.02886 | -77.45058 | 945 ft | 188 kts | 136° |
| 2026-04-24 08:02 | 25.01921 | -77.44009 | 1687 ft | 204 kts | 132° |
| 2026-04-24 08:02 | 25.01189 | -77.42592 | 2224 ft | 229 kts | 106° |
| 2026-04-24 08:03 | 25.01214 | -77.40741 | 2937 ft | 255 kts | 75° |
| 2026-04-24 08:03 | 25.02162 | -77.39052 | 4067 ft | 269 kts | 45° |
| 2026-04-24 08:03 | 25.03850 | -77.38104 | 5184 ft | 281 kts | 12° |
| 2026-04-24 08:03 | 25.05797 | -77.38256 | 6329 ft | 286 kts | 339° |
| 2026-04-24 08:04 | 25.07406 | -77.39487 | 7470 ft | 284 kts | 308° |
| 2026-04-24 08:04 | 25.08398 | -77.41348 | 8703 ft | 278 kts | 294° |
| 2026-04-24 08:04 | 25.09226 | -77.43243 | 10083 ft | 271 kts | 294° |
| 2026-04-24 08:04 | 25.10055 | -77.45073 | 11327 ft | 264 kts | 294° |
| 2026-04-24 08:05 | 25.10980 | -77.46844 | 12221 ft | 277 kts | 304° |
| 2026-04-24 08:05 | 25.12337 | -77.48497 | 12658 ft | 305 kts | 314° |
| 2026-04-24 08:05 | 25.13986 | -77.50125 | 13051 ft | 330 kts | 316° |
| 2026-04-24 08:05 | 25.15728 | -77.51781 | 13446 ft | 350 kts | 317° |
| 2026-04-24 08:06 | 25.17614 | -77.53538 | 14156 ft | 358 kts | 317° |
| 2026-04-24 08:06 | 25.19536 | -77.55316 | 14908 ft | 363 kts | 317° |
| 2026-04-24 08:06 | 25.21484 | -77.57122 | 15662 ft | 368 kts | 317° |
| 2026-04-24 08:06 | 25.23402 | -77.58907 | 16399 ft | 372 kts | 316° |
| 2026-04-24 08:07 | 25.25386 | -77.60762 | 17175 ft | 376 kts | 316° |
| 2026-04-24 08:07 | 25.27393 | -77.62643 | 17962 ft | 380 kts | 316° |
| 2026-04-24 08:07 | 25.29377 | -77.64506 | 18695 ft | 384 kts | 316° |
| 2026-04-24 08:07 | 25.31427 | -77.66433 | 19416 ft | 388 kts | 316° |
| 2026-04-24 08:08 | 25.33494 | -77.68376 | 20172 ft | 392 kts | 316° |
| 2026-04-24 08:08 | 25.35579 | -77.70337 | 20906 ft | 396 kts | 316° |
| 2026-04-24 08:08 | 25.37690 | -77.72323 | 21624 ft | 400 kts | 316° |
| 2026-04-24 08:09 | 25.41927 | -77.76322 | 22949 ft | 407 kts | 316° |
| 2026-04-24 08:09 | 25.44093 | -77.78370 | 23604 ft | 410 kts | 316° |
| 2026-04-24 08:09 | 25.46264 | -77.80443 | 24098 ft | 415 kts | 315° |
| 2026-04-24 08:09 | 25.48456 | -77.82551 | 24600 ft | 419 kts | 315° |
| 2026-04-24 08:10 | 25.50659 | -77.84675 | 25114 ft | 421 kts | 315° |
| 2026-04-24 08:10 | 25.52875 | -77.86808 | 25643 ft | 424 kts | 315° |
| 2026-04-24 08:10 | 25.55114 | -77.88957 | 26155 ft | 426 kts | 315° |
| 2026-04-24 08:10 | 25.57359 | -77.91111 | 26665 ft | 428 kts | 315° |
| 2026-04-24 08:11 | 25.59614 | -77.93277 | 27169 ft | 431 kts | 315° |
| 2026-04-24 08:11 | 25.61883 | -77.95460 | 27666 ft | 433 kts | 314° |
| 2026-04-24 08:11 | 25.64164 | -77.97660 | 28183 ft | 435 kts | 314° |
| 2026-04-24 08:11 | 25.66456 | -77.99870 | 28681 ft | 438 kts | 314° |
| 2026-04-24 08:12 | 25.68761 | -78.02089 | 29149 ft | 440 kts | 314° |
| 2026-04-24 08:12 | 25.71079 | -78.04320 | 29607 ft | 443 kts | 314° |
| 2026-04-24 08:12 | 25.73408 | -78.06565 | 30056 ft | 445 kts | 314° |
| 2026-04-24 08:12 | 25.75754 | -78.08830 | 30425 ft | 447 kts | 314° |
| 2026-04-24 08:13 | 25.78110 | -78.11109 | 30788 ft | 450 kts | 314° |
| 2026-04-24 08:13 | 25.80475 | -78.13401 | 31109 ft | 452 kts | 314° |
| 2026-04-24 08:13 | 25.82842 | -78.15690 | 31568 ft | 451 kts | 314° |
| 2026-04-24 08:13 | 25.85207 | -78.17970 | 32065 ft | 449 kts | 313° |
| 2026-04-24 08:14 | 25.87526 | -78.20208 | 32578 ft | 446 kts | 313° |
| 2026-04-24 08:14 | 25.89863 | -78.22466 | 33100 ft | 444 kts | 313° |
| 2026-04-24 08:14 | 25.92214 | -78.24740 | 33633 ft | 442 kts | 313° |
| 2026-04-24 08:14 | 25.94524 | -78.26978 | 34163 ft | 439 kts | 312° |
| 2026-04-24 08:15 | 25.96789 | -78.29174 | 34640 ft | 436 kts | 312° |
| 2026-04-24 08:15 | 25.99065 | -78.31384 | 35162 ft | 433 kts | 312° |
| 2026-04-24 08:15 | 26.01327 | -78.33582 | 35694 ft | 430 kts | 312° |
| 2026-04-24 08:15 | 26.03570 | -78.35764 | 35955 ft | 428 kts | 312° |
| 2026-04-24 08:16 | 26.05804 | -78.37936 | 36023 ft | 425 kts | 312° |
| 2026-04-24 08:16 | 26.10236 | -78.42247 | 36047 ft | 422 kts | 312° |
| 2026-04-24 08:17 | 26.14656 | -78.46551 | 36021 ft | 422 kts | 312° |
| 2026-04-24 08:17 | 26.19073 | -78.50867 | 36022 ft | 422 kts | 311° |
| 2026-04-24 08:18 | 26.23492 | -78.55180 | 36023 ft | 422 kts | 312° |
| 2026-04-24 08:18 | 26.27910 | -78.59493 | 36034 ft | 423 kts | 312° |
| 2026-04-24 08:19 | 26.32332 | -78.63819 | 36040 ft | 423 kts | 311° |
| 2026-04-24 08:19 | 26.36754 | -78.68149 | 36056 ft | 423 kts | 312° |
| 2026-04-24 08:20 | 26.41174 | -78.72476 | 36063 ft | 422 kts | 312° |
| 2026-04-24 08:20 | 26.45593 | -78.76800 | 36059 ft | 422 kts | 312° |
| 2026-04-24 08:21 | 26.49975 | -78.81106 | 36052 ft | 423 kts | 312° |
| 2026-04-24 08:21 | 26.54392 | -78.85453 | 36044 ft | 423 kts | 312° |
| 2026-04-24 08:22 | 26.58804 | -78.89801 | 36042 ft | 423 kts | 312° |
| 2026-04-24 08:22 | 26.63221 | -78.94147 | 36040 ft | 423 kts | 312° |
| 2026-04-24 08:23 | 26.67632 | -78.98494 | 36039 ft | 423 kts | 312° |
| 2026-04-24 08:23 | 26.72039 | -79.02854 | 36041 ft | 423 kts | 312° |
| 2026-04-24 08:24 | 26.76442 | -79.07214 | 36059 ft | 423 kts | 312° |
| 2026-04-24 08:24 | 26.80865 | -79.11584 | 36036 ft | 424 kts | 312° |
| 2026-04-24 08:25 | 26.85298 | -79.15960 | 36030 ft | 425 kts | 312° |
| 2026-04-24 08:25 | 26.89734 | -79.20349 | 36029 ft | 426 kts | 312° |
| 2026-04-24 08:26 | 26.94139 | -79.24730 | 36035 ft | 426 kts | 312° |
| 2026-04-24 08:26 | 26.98580 | -79.29150 | 36032 ft | 427 kts | 312° |
| 2026-04-24 08:27 | 27.03019 | -79.33567 | 36038 ft | 427 kts | 312° |
| 2026-04-24 08:27 | 27.07460 | -79.37994 | 36070 ft | 427 kts | 312° |
| 2026-04-24 08:28 | 27.11915 | -79.42430 | 36044 ft | 429 kts | 312° |
| 2026-04-24 08:28 | 27.16387 | -79.46895 | 36035 ft | 430 kts | 313° |
| 2026-04-24 08:29 | 27.20742 | -79.51482 | 36030 ft | 426 kts | 305° |
| 2026-04-24 08:29 | 27.23842 | -79.57024 | 36020 ft | 417 kts | 292° |
| 2026-04-24 08:30 | 27.26463 | -79.62846 | 36030 ft | 418 kts | 292° |
| 2026-04-24 08:30 | 27.29098 | -79.68681 | 36030 ft | 419 kts | 292° |
| 2026-04-24 08:31 | 27.31725 | -79.74515 | 36030 ft | 419 kts | 292° |
| 2026-04-24 08:31 | 27.34357 | -79.80359 | 36044 ft | 419 kts | 293° |
| 2026-04-24 08:32 | 27.36985 | -79.86208 | 36027 ft | 419 kts | 293° |
| 2026-04-24 08:32 | 27.39599 | -79.92039 | 36021 ft | 420 kts | 293° |
| 2026-04-24 08:33 | 27.42225 | -79.97919 | 36022 ft | 421 kts | 293° |
| 2026-04-24 08:33 | 27.44861 | -80.03805 | 36034 ft | 421 kts | 293° |
| 2026-04-24 08:34 | 27.47495 | -80.09698 | 36042 ft | 421 kts | 293° |
| 2026-04-24 08:34 | 27.50124 | -80.15592 | 36048 ft | 421 kts | 293° |
| 2026-04-24 08:35 | 27.52736 | -80.21469 | 36050 ft | 422 kts | 294° |
| 2026-04-24 08:35 | 27.55361 | -80.27386 | 36049 ft | 422 kts | 294° |
| 2026-04-24 08:36 | 27.57992 | -80.33302 | 35992 ft | 423 kts | 294° |
| 2026-04-24 08:36 | 27.59309 | -80.36268 | 35740 ft | 423 kts | 294° |
| 2026-04-24 08:36 | 27.60625 | -80.39235 | 35495 ft | 423 kts | 294° |
| 2026-04-24 08:36 | 27.61943 | -80.42205 | 35254 ft | 423 kts | 294° |
| 2026-04-24 08:37 | 27.63258 | -80.45168 | 35016 ft | 424 kts | 294° |
| 2026-04-24 08:37 | 27.64574 | -80.48138 | 34774 ft | 425 kts | 293° |
| 2026-04-24 08:37 | 27.65903 | -80.51139 | 34547 ft | 425 kts | 293° |
| 2026-04-24 08:37 | 27.67221 | -80.54120 | 34232 ft | 425 kts | 294° |
| 2026-04-24 08:38 | 27.68544 | -80.57122 | 33151 ft | 429 kts | 294° |
| 2026-04-24 08:38 | 27.69876 | -80.60142 | 32095 ft | 432 kts | 294° |
| 2026-04-24 08:38 | 27.71221 | -80.63191 | 31020 ft | 434 kts | 294° |
| 2026-04-24 08:38 | 27.72571 | -80.66259 | 29899 ft | 437 kts | 294° |
| 2026-04-24 08:39 | 27.73914 | -80.69293 | 28649 ft | 439 kts | 295° |
| 2026-04-24 08:39 | 27.75284 | -80.72371 | 27451 ft | 439 kts | 295° |
| 2026-04-24 08:39 | 27.76646 | -80.75462 | 26305 ft | 440 kts | 295° |
| 2026-04-24 08:39 | 27.77990 | -80.78540 | 25668 ft | 431 kts | 295° |
| 2026-04-24 08:40 | 27.79318 | -80.81559 | 25219 ft | 427 kts | 295° |
| 2026-04-24 08:40 | 27.80646 | -80.84551 | 24335 ft | 425 kts | 295° |
| 2026-04-24 08:40 | 27.81972 | -80.87525 | 23497 ft | 422 kts | 295° |
| 2026-04-24 08:40 | 27.83287 | -80.90467 | 22587 ft | 417 kts | 295° |
| 2026-04-24 08:41 | 27.84584 | -80.93363 | 21778 ft | 411 kts | 295° |
| 2026-04-24 08:41 | 27.85869 | -80.96232 | 20993 ft | 406 kts | 295° |
| 2026-04-24 08:41 | 27.87132 | -80.99059 | 20258 ft | 401 kts | 295° |
| 2026-04-24 08:41 | 27.88382 | -81.01862 | 19546 ft | 397 kts | 295° |
| 2026-04-24 08:42 | 27.89626 | -81.04635 | 18854 ft | 395 kts | 297° |
| 2026-04-24 08:42 | 27.91175 | -81.07198 | 18174 ft | 395 kts | 308° |
| 2026-04-24 08:42 | 27.93153 | -81.09352 | 17455 ft | 394 kts | 320° |
| 2026-04-24 08:42 | 27.95457 | -81.11015 | 16784 ft | 393 kts | 330° |
| 2026-04-24 08:43 | 27.97965 | -81.12230 | 16071 ft | 391 kts | 335° |
| 2026-04-24 08:43 | 28.00475 | -81.13373 | 15341 ft | 388 kts | 336° |
| 2026-04-24 08:43 | 28.02973 | -81.14508 | 14602 ft | 385 kts | 336° |
| 2026-04-24 08:43 | 28.05461 | -81.15637 | 13797 ft | 384 kts | 337° |
| 2026-04-24 08:44 | 28.07998 | -81.16578 | 12906 ft | 383 kts | 341° |
| 2026-04-24 08:44 | 28.10575 | -81.17179 | 12068 ft | 382 kts | 350° |
| 2026-04-24 08:44 | 28.13212 | -81.17490 | 11230 ft | 379 kts | 354° |
| 2026-04-24 08:44 | 28.15832 | -81.17659 | 10422 ft | 376 kts | 355° |
| 2026-04-24 08:45 | 28.18399 | -81.18033 | 9584 ft | 370 kts | 342° |
| 2026-04-24 08:45 | 28.20669 | -81.19312 | 8714 ft | 363 kts | 322° |
| 2026-04-24 08:45 | 28.22463 | -81.21273 | 8196 ft | 351 kts | 313° |
| 2026-04-24 08:45 | 28.24085 | -81.23228 | 8031 ft | 331 kts | 313° |
| 2026-04-24 08:46 | 28.25607 | -81.25076 | 8004 ft | 310 kts | 313° |
| 2026-04-24 08:46 | 28.27030 | -81.26808 | 7983 ft | 291 kts | 313° |
| 2026-04-24 08:46 | 28.28389 | -81.28463 | 7815 ft | 282 kts | 313° |
| 2026-04-24 08:46 | 28.29714 | -81.30079 | 7647 ft | 279 kts | 313° |
| 2026-04-24 08:47 | 28.31036 | -81.31695 | 7468 ft | 279 kts | 313° |
| 2026-04-24 08:47 | 28.32354 | -81.33309 | 7301 ft | 278 kts | 313° |
| 2026-04-24 08:47 | 28.33664 | -81.34919 | 7133 ft | 278 kts | 313° |
| 2026-04-24 08:47 | 28.34976 | -81.36538 | 6956 ft | 278 kts | 313° |
| 2026-04-24 08:48 | 28.35843 | -81.37609 | 6854 ft | 278 kts | 313° |
| 2026-04-24 08:48 | 28.37147 | -81.39225 | 6683 ft | 273 kts | 313° |
| 2026-04-24 08:48 | 28.38406 | -81.40789 | 6523 ft | 267 kts | 313° |
| 2026-04-24 08:48 | 28.39657 | -81.42348 | 6344 ft | 266 kts | 313° |
| 2026-04-24 08:49 | 28.40895 | -81.43901 | 6174 ft | 265 kts | 313° |
| 2026-04-24 08:49 | 28.42184 | -81.45383 | 6042 ft | 263 kts | 325° |
| 2026-04-24 08:49 | 28.43856 | -81.46146 | 6007 ft | 261 kts | 353° |
| 2026-04-24 08:49 | 28.45668 | -81.46248 | 6010 ft | 261 kts | 0° |
| 2026-04-24 08:50 | 28.47489 | -81.46249 | 6002 ft | 261 kts | 1° |
| 2026-04-24 08:50 | 28.49309 | -81.46240 | 5846 ft | 261 kts | 1° |
| 2026-04-24 08:50 | 28.51120 | -81.46227 | 5638 ft | 259 kts | 1° |
| 2026-04-24 08:50 | 28.52917 | -81.46213 | 5439 ft | 258 kts | 1° |
| 2026-04-24 08:51 | 28.54690 | -81.46198 | 5243 ft | 257 kts | 1° |
| 2026-04-24 08:51 | 28.56477 | -81.46181 | 5041 ft | 257 kts | 1° |
| 2026-04-24 08:51 | 28.58262 | -81.46163 | 4850 ft | 256 kts | 1° |
| 2026-04-24 08:51 | 28.60034 | -81.46141 | 4649 ft | 255 kts | 2° |
| 2026-04-24 08:52 | 28.61742 | -81.45665 | 4446 ft | 254 kts | 30° |
| 2026-04-24 08:52 | 28.63007 | -81.44302 | 4242 ft | 253 kts | 59° |
| 2026-04-24 08:52 | 28.63557 | -81.42411 | 4049 ft | 254 kts | 80° |
| 2026-04-24 08:52 | 28.63816 | -81.40426 | 3850 ft | 254 kts | 83° |
| 2026-04-24 08:53 | 28.63878 | -81.38428 | 3572 ft | 251 kts | 99° |
| 2026-04-24 08:53 | 28.63309 | -81.36597 | 3400 ft | 241 kts | 123° |
| 2026-04-24 08:53 | 28.62213 | -81.35230 | 3287 ft | 229 kts | 140° |
| 2026-04-24 08:53 | 28.61046 | -81.34069 | 3189 ft | 217 kts | 140° |
| 2026-04-24 08:54 | 28.59856 | -81.33098 | 3094 ft | 205 kts | 159° |
| 2026-04-24 08:54 | 28.58495 | -81.32826 | 2900 ft | 198 kts | 179° |
| 2026-04-24 08:54 | 28.57128 | -81.32817 | 2538 ft | 195 kts | 180° |
| 2026-04-24 08:54 | 28.55805 | -81.32813 | 2266 ft | 182 kts | 179° |
| 2026-04-24 08:55 | 28.54619 | -81.32803 | 2046 ft | 158 kts | 179° |
| 2026-04-24 08:55 | 28.53596 | -81.32792 | 1846 ft | 140 kts | 178° |
| 2026-04-24 08:55 | 28.52648 | -81.32782 | 1662 ft | 134 kts | 178° |
| 2026-04-24 08:55 | 28.51727 | -81.32772 | 1480 ft | 132 kts | 178° |
| 2026-04-24 08:56 | 28.50813 | -81.32762 | 1310 ft | 131 kts | 178° |
| 2026-04-24 08:56 | 28.49902 | -81.32752 | 1127 ft | 131 kts | 178° |
| 2026-04-24 08:56 | 28.48989 | -81.32742 | 957 ft | 132 kts | 178° |
| 2026-04-24 08:56 | 28.48066 | -81.32732 | 788 ft | 133 kts | 179° |
| 2026-04-24 08:57 | 28.47141 | -81.32722 | 591 ft | 133 kts | 179° |
| 2026-04-24 08:57 | 28.46212 | -81.32710 | 421 ft | 133 kts | 179° |
| 2026-04-24 08:57 | 28.45284 | -81.32701 | 243 ft | 133 kts | 179° |
| 2026-04-24 08:57 | 28.44357 | -81.32695 | 109 ft | 129 kts | 179° |
| 2026-04-24 08:58 | 28.43576 | -81.32684 | 100 ft | 89 kts | 179° |
| 2026-04-24 08:58 | 28.43123 | -81.32680 | 100 ft | 47 kts | 179° |
| 2026-04-24 08:58 | 28.42808 | -81.32676 | 102 ft | 44 kts | 179° |
| 2026-04-24 08:58 | 28.42618 | -81.32600 | 100 ft | 20 kts | 130° |
| 2026-04-24 08:59 | 28.42542 | -81.32460 | 101 ft | 22 kts | 120° |
| 2026-04-24 08:59 | 28.42458 | -81.32295 | 104 ft | 25 kts | 120° |
| 2026-04-24 08:59 | 28.42374 | -81.32127 | 106 ft | 26 kts | 122° |
| 2026-04-24 08:59 | 28.42272 | -81.31971 | 101 ft | 21 kts | 123° |
| 2026-04-24 09:00 | 28.42238 | -81.31852 | 100 ft | 17 kts | 147° |
| 2026-04-24 09:00 | 28.42112 | -81.31876 | 98 ft | 21 kts | 188° |
| 2026-04-24 09:00 | 28.41963 | -81.31879 | 98 ft | 23 kts | 180° |
| 2026-04-24 09:00 | 28.41803 | -81.31877 | 99 ft | 17 kts | 178° |
| 2026-04-24 09:01 | 28.41728 | -81.31796 | 98 ft | 16 kts | 146° |
| 2026-04-24 09:01 | 28.41665 | -81.31697 | 98 ft | 17 kts | 114° |
| 2026-04-24 09:01 | 28.41620 | -81.31579 | 97 ft | 10 kts | 114° |
| 2026-04-24 09:01 | 28.41575 | -81.31503 | 95 ft | 14 kts | 123° |
| 2026-04-24 09:02 | 28.41562 | -81.31449 | 95 ft | 5 kts | 99° |
| 2026-04-24 09:02 | 28.41560 | -81.31440 | 95 ft | 0 kts | 99° |